KDAY/DAY METAR and TAF weather

Enter ICAO airport designator
Station Type Date Time Source
KDAY METAR 2019/08/22 01:56 UTC NOAA

KDAY 220156Z 21007KT 10SM FEW250 25/20 A2998 RMK AO2 SLP144 T02500200


Station Type Date Time Source
KDAY Decoded METAR 2019/08/22 01:56 UTC NOAA

Station name not available
Aug 21, 2019 - 09:56 PM EDT / 2019.08.22 0156 UTC
Wind: from the SSW (210 degrees) at 8 MPH (7 KT):0
Visibility: 10 mile(s):0
Sky conditions: mostly clear
Temperature: 77.0 F (25.0 C)
Dew Point: 68.0 F (20.0 C)
Relative Humidity: 73%
Pressure (altimeter): 29.98 in. Hg (1015 hPa)
ob: KDAY 220156Z 21007KT 10SM FEW250 25/20 A2998 RMK AO2 SLP144 T02500200
cycle: 2

Station Type Date Time Source
KDAY TAF 2019/08/21 18:54 UTC NOAA

TAF KDAY 211751Z 2118/2218 26010KT P6SM BKN035
FM220000 26006KT P6SM SCT250
FM220300 23005KT P6SM SCT250
FM220600 24005KT P6SM VCSH SCT050 BKN100
FM221100 25005KT P6SM VCSH BKN020
FM221500 24006KT P6SM VCSH BKN028

Example: see airport list